Terminal Aerodrome Forecast
Issued by NWS

Home | Current Version | Previous Version | Text Only | Print | Product List | Glossary On
Versions: 1 2 3 4 5 6 7 8 9 10 11 12 13 14 15 16 17
000
FTUS43 KDTX 201125
TAFYIP
TAF
KYIP 201125Z 2012/2112 VRB03KT P6SM SKC
     FM201500 21007KT P6SM SKC
     FM202100 16005KT P6SM SCT060
     FM210900 20003KT 5SM BR SCT200=

USA.gov is the U.S. government's official web portal to all federal, state and local government web resources and services.